createdAt,value
2023-11-12T00:00:57.212Z,97786.85
2023-11-12T00:03:24.218Z,97786.43
2023-11-12T00:05:52.628Z,97785.77
2023-11-12T00:08:19.725Z,97786.39
2023-11-12T00:10:48.394Z,97778.79
2023-11-12T00:13:15.416Z,97778.12
2023-11-12T00:15:42.462Z,97776.38
2023-11-12T00:18:09.642Z,97781.63
2023-11-12T00:20:36.652Z,97781.48
2023-11-12T00:23:03.537Z,97780.77
2023-11-12T00:25:30.485Z,97782.66
2023-11-12T00:27:58.567Z,97784.91
2023-11-12T00:30:25.324Z,97786.30
2023-11-12T00:32:53.560Z,97784.45
2023-11-12T00:35:20.794Z,97785.96
2023-11-12T00:37:48.464Z,97784.49
2023-11-12T00:40:17.126Z,97781.67
2023-11-12T00:42:44.580Z,97780.60
2023-11-12T00:45:13.287Z,97776.73
2023-11-12T00:47:40.351Z,97772.06
2023-11-12T00:50:09.336Z,97773.29
2023-11-12T00:52:36.595Z,97768.08
2023-11-12T00:55:04.122Z,97771.46
2023-11-12T00:57:31.471Z,97774.05
2023-11-12T00:59:58.885Z,97777.98
2023-11-12T01:02:28.325Z,97780.07
2023-11-12T01:04:55.417Z,97782.50
2023-11-12T01:07:22.331Z,97782.69
2023-11-12T01:09:50.329Z,97779.18
2023-11-12T01:12:20.092Z,97774.52
2023-11-12T01:14:48.508Z,97771.94
2023-11-12T01:17:15.741Z,97774.85
2023-11-12T01:19:42.802Z,97777.33
2023-11-12T01:22:09.839Z,97773.29
2023-11-12T01:24:38.256Z,97774.42
2023-11-12T01:27:05.276Z,97773.33
2023-11-12T01:29:32.735Z,97774.66
2023-11-12T01:31:59.987Z,97776.15
2023-11-12T01:34:26.812Z,97775.05
2023-11-12T01:36:53.759Z,97775.31
2023-11-12T01:39:20.618Z,97772.00
2023-11-12T01:41:47.617Z,97769.98
2023-11-12T01:44:14.637Z,97763.46
2023-11-12T01:46:41.440Z,97763.86
2023-11-12T01:49:08.336Z,97761.21
2023-11-12T01:51:36.200Z,97759.53
2023-11-12T01:54:03.748Z,97752.48
2023-11-12T01:56:31.071Z,97756.04
2023-11-12T01:58:58.249Z,97755.26
2023-11-12T02:01:25.429Z,97755.36
2023-11-12T02:03:52.994Z,97751.52
2023-11-12T02:06:20.730Z,97750.68
2023-11-12T02:08:47.775Z,97752.23
2023-11-12T02:11:14.667Z,97752.12
2023-11-12T02:13:42.671Z,97752.21
2023-11-12T02:16:10.528Z,97751.79
2023-11-12T02:18:37.710Z,97753.74
2023-11-12T02:21:04.950Z,97755.19
2023-11-12T02:23:37.211Z,97753.09
2023-11-12T02:26:04.452Z,97751.33
2023-11-12T02:28:31.291Z,97749.02
2023-11-12T02:30:58.520Z,97746.48
2023-11-12T02:33:27.957Z,97744.91
2023-11-12T02:35:56.133Z,97745.71
2023-11-12T02:38:23.963Z,97745.95
2023-11-12T02:40:51.827Z,97749.50
2023-11-12T02:43:19.315Z,97749.16
2023-11-12T02:45:47.189Z,97748.21
2023-11-12T02:48:14.385Z,97757.39
2023-11-12T02:50:42.217Z,97760.30
2023-11-12T02:53:10.885Z,97762.54
2023-11-12T02:55:38.119Z,97764.11
2023-11-12T02:58:05.652Z,97765.46
2023-11-12T03:00:34.075Z,97761.38
2023-11-12T03:03:02.391Z,97763.63
2023-11-12T03:05:29.888Z,97766.38
2023-11-12T03:07:59.827Z,97761.61
2023-11-12T03:10:26.985Z,97768.36
2023-11-12T03:12:54.461Z,97775.33
2023-11-12T03:15:21.508Z,97783.02
2023-11-12T03:17:49.100Z,97788.25
2023-11-12T03:20:16.579Z,97784.90
2023-11-12T03:22:43.769Z,97788.06
2023-11-12T03:25:10.643Z,97789.52
2023-11-12T03:27:37.836Z,97794.98
2023-11-12T03:30:06.378Z,97793.16
2023-11-12T03:32:33.597Z,97796.27
2023-11-12T03:35:01.634Z,97793.75
2023-11-12T03:37:29.019Z,97796.05
2023-11-12T03:39:57.364Z,97801.98
2023-11-12T03:42:24.786Z,97803.14
2023-11-12T03:44:51.731Z,97801.14
2023-11-12T03:47:18.551Z,97802.59
2023-11-12T03:49:45.854Z,97800.36
2023-11-12T03:52:13.555Z,97802.44
2023-11-12T03:54:40.534Z,97799.59
2023-11-12T03:57:07.515Z,97797.20
2023-11-12T03:59:36.641Z,97793.73
2023-11-12T04:02:04.912Z,97793.81
2023-11-12T04:04:32.126Z,97795.52
2023-11-12T04:06:59.288Z,97798.54
2023-11-12T04:09:26.450Z,97800.67
2023-11-12T04:11:54.006Z,97801.45
2023-11-12T04:14:21.351Z,97802.23
2023-11-12T04:16:48.403Z,97797.65
2023-11-12T04:19:15.329Z,97796.95
2023-11-12T04:21:46.710Z,97793.52
2023-11-12T04:24:13.834Z,97788.90
2023-11-12T04:26:41.094Z,97791.21
2023-11-12T04:29:08.929Z,97791.61
2023-11-12T04:31:36.846Z,97792.58
2023-11-12T04:34:04.627Z,97793.95
2023-11-12T04:36:36.051Z,97793.05
2023-11-12T04:39:03.982Z,97800.34
2023-11-12T04:41:31.022Z,97804.39
2023-11-12T04:43:58.259Z,97804.84
2023-11-12T04:46:25.976Z,97810.33
2023-11-12T04:48:52.857Z,97811.10
2023-11-12T04:51:20.439Z,97814.98
2023-11-12T04:53:48.751Z,97817.56
2023-11-12T04:56:16.018Z,97821.54
2023-11-12T04:58:43.128Z,97822.10
2023-11-12T05:01:10.100Z,97824.98
2023-11-12T05:03:37.278Z,97829.93
2023-11-12T05:06:05.595Z,97833.44
2023-11-12T05:08:32.620Z,97835.36
2023-11-12T05:10:59.660Z,97839.08
2023-11-12T05:13:26.855Z,97842.48
2023-11-12T05:15:54.535Z,97847.05
2023-11-12T05:18:21.914Z,97850.09
2023-11-12T05:20:49.006Z,97854.16
2023-11-12T05:23:16.065Z,97856.81
2023-11-12T05:25:43.543Z,97859.01
2023-11-12T05:28:10.615Z,97861.08
2023-11-12T05:30:39.470Z,97861.50
2023-11-12T05:33:06.366Z,97862.37
2023-11-12T05:35:33.480Z,97865.02
2023-11-12T05:38:00.624Z,97867.12
2023-11-12T05:40:29.766Z,97869.43
2023-11-12T05:42:56.711Z,97869.80
2023-11-12T05:45:23.552Z,97868.61
2023-11-12T05:47:50.600Z,97872.09
2023-11-12T05:50:17.919Z,97874.92
2023-11-12T05:52:44.857Z,97876.10
2023-11-12T05:55:12.163Z,97876.73
2023-11-12T05:57:39.337Z,97881.68
2023-11-12T06:00:13.496Z,97880.44
2023-11-12T06:02:40.596Z,97882.96
2023-11-12T06:05:08.596Z,97887.48
2023-11-12T06:07:35.700Z,97888.68
2023-11-12T06:10:03.838Z,97892.61
2023-11-12T06:12:31.741Z,97892.12
2023-11-12T06:14:58.945Z,97894.68
2023-11-12T06:17:25.984Z,97892.35
2023-11-12T06:19:53.506Z,97889.96
2023-11-12T06:22:20.898Z,97891.34
2023-11-12T06:24:47.921Z,97894.77
2023-11-12T06:27:15.001Z,97894.89
2023-11-12T06:29:42.792Z,97894.59
2023-11-12T06:32:09.901Z,97892.75
2023-11-12T06:34:36.812Z,97889.08
2023-11-12T06:37:04.450Z,97891.55
2023-11-12T06:39:31.658Z,97888.48
2023-11-12T06:41:58.802Z,97890.21
2023-11-12T06:44:26.070Z,97887.66
2023-11-12T06:46:52.940Z,97884.81
2023-11-12T06:49:19.947Z,97886.10
2023-11-12T06:51:47.095Z,97886.42
2023-11-12T06:54:14.321Z,97885.83
2023-11-12T06:56:41.269Z,97886.20
2023-11-12T06:59:08.447Z,97884.64
2023-11-12T07:01:36.504Z,97882.44
2023-11-12T07:04:05.018Z,97881.71
2023-11-12T07:06:32.258Z,97880.73
2023-11-12T07:08:59.818Z,97886.06
2023-11-12T07:11:26.685Z,97887.99
2023-11-12T07:13:53.706Z,97882.24
2023-11-12T07:16:21.207Z,97884.30
2023-11-12T07:21:31.504Z,97885.08
2023-11-12T07:23:58.804Z,97887.13
2023-11-12T07:26:27.878Z,97890.13
2023-11-12T07:28:55.120Z,97883.97
2023-11-12T07:31:23.858Z,97885.21
2023-11-12T07:33:51.384Z,97883.48
2023-11-12T07:36:19.282Z,97886.11
2023-11-12T07:38:46.395Z,97884.89
2023-11-12T07:41:13.341Z,97884.87
2023-11-12T07:43:41.445Z,97890.50
2023-11-12T07:46:08.834Z,97890.44
2023-11-12T07:48:36.644Z,97891.04
2023-11-12T07:51:03.765Z,97893.54
2023-11-12T07:53:30.729Z,97890.80
2023-11-12T07:55:57.902Z,97891.23
2023-11-12T07:58:25.299Z,97892.59
2023-11-12T08:00:52.513Z,97894.99
2023-11-12T08:03:21.232Z,97898.54
2023-11-12T08:05:49.932Z,97899.30
2023-11-12T08:08:17.033Z,97901.86
2023-11-12T08:10:43.955Z,97902.25
2023-11-12T08:13:10.905Z,97902.55
2023-11-12T08:15:38.475Z,97904.56
2023-11-12T08:18:08.732Z,97907.80
2023-11-12T08:20:36.513Z,97908.60
2023-11-12T08:23:04.258Z,97906.95
2023-11-12T08:25:31.197Z,97904.27
2023-11-12T08:27:58.374Z,97909.34
2023-11-12T08:30:25.756Z,97906.92
2023-11-12T08:32:52.819Z,97916.23
2023-11-12T08:35:19.850Z,97910.58
2023-11-12T08:37:47.146Z,97912.89
2023-11-12T08:40:16.499Z,97913.94
2023-11-12T08:42:44.137Z,97912.44
2023-11-12T08:45:11.124Z,97911.70
2023-11-12T08:47:37.971Z,97912.81
2023-11-12T08:50:05.599Z,97914.39
2023-11-12T08:52:32.856Z,97910.98
2023-11-12T08:55:00.439Z,97916.75
2023-11-12T08:57:27.804Z,97913.40
2023-11-12T08:59:55.249Z,97914.41
2023-11-12T09:02:23.122Z,97915.80
2023-11-12T09:04:49.898Z,97920.82
2023-11-12T09:07:16.997Z,97918.56
2023-11-12T09:09:45.007Z,97923.08
2023-11-12T09:12:12.394Z,97927.26
2023-11-12T09:14:39.370Z,97925.88
2023-11-12T09:17:07.473Z,97928.11
2023-11-12T09:19:34.388Z,97930.85
2023-11-12T09:22:01.535Z,97933.23
2023-11-12T09:24:28.652Z,97933.59
2023-11-12T09:26:55.527Z,97935.91
2023-11-12T09:29:22.319Z,97936.72
2023-11-12T09:31:49.434Z,97938.85
2023-11-12T09:34:16.839Z,97941.88
2023-11-12T09:36:43.864Z,97941.17
2023-11-12T09:39:14.410Z,97944.94
2023-11-12T09:41:46.059Z,97947.21
2023-11-12T09:44:14.871Z,97946.20
2023-11-12T09:46:41.834Z,97949.24
2023-11-12T09:49:09.433Z,97949.31
2023-11-12T09:51:36.722Z,97955.61
2023-11-12T09:54:04.210Z,97956.29
2023-11-12T09:56:31.275Z,97957.24
2023-11-12T09:58:58.080Z,97961.10
2023-11-12T10:01:25.183Z,97959.23
2023-11-12T10:03:53.115Z,97964.95
2023-11-12T10:06:23.682Z,97962.52
2023-11-12T10:08:51.062Z,97963.27
2023-11-12T10:11:22.360Z,97965.50
2023-11-12T10:13:51.759Z,97965.25
2023-11-12T10:16:32.289Z,97970.45
2023-11-12T10:19:16.063Z,97973.63
2023-11-12T10:21:57.647Z,97978.10
2023-11-12T10:24:28.650Z,97983.36
2023-11-12T10:27:02.503Z,97985.38
2023-11-12T10:29:29.747Z,97989.68
2023-11-12T10:31:57.844Z,97989.75
2023-11-12T10:34:27.931Z,97993.01
2023-11-12T10:37:16.624Z,97990.54
2023-11-12T10:39:47.297Z,97991.48
2023-11-12T10:42:14.942Z,97998.16
2023-11-12T10:44:42.478Z,97998.92
2023-11-12T10:47:09.940Z,98005.78
2023-11-12T10:49:40.427Z,98006.00
2023-11-12T10:52:08.993Z,98008.48
2023-11-12T10:54:37.104Z,98009.33
2023-11-12T10:57:04.639Z,98014.38
2023-11-12T10:59:32.226Z,98017.60
2023-11-12T11:02:02.451Z,98016.80
2023-11-12T11:04:31.631Z,98021.49
2023-11-12T11:06:59.665Z,98019.87
2023-11-12T11:09:28.285Z,98025.48
2023-11-12T11:11:55.198Z,98028.58
2023-11-12T11:14:28.298Z,98031.52
2023-11-12T11:16:55.703Z,98034.98
2023-11-12T11:19:46.200Z,98039.50
2023-11-12T11:22:25.882Z,98046.52
2023-11-12T11:24:54.180Z,98053.29
2023-11-12T11:27:25.128Z,98058.25
2023-11-12T11:30:16.874Z,98060.45
2023-11-12T11:33:04.309Z,98066.20
2023-11-12T11:35:31.609Z,98066.73
2023-11-12T11:38:12.313Z,98071.79
2023-11-12T11:40:40.645Z,98074.99
2023-11-12T11:43:23.386Z,98081.26
2023-11-12T11:46:07.567Z,98079.98
2023-11-12T11:48:35.205Z,98091.41
2023-11-12T11:51:03.985Z,98096.20
2023-11-12T11:53:32.690Z,98097.38
2023-11-12T11:56:07.301Z,98106.54
2023-11-12T11:58:41.719Z,98112.86
2023-11-12T12:01:09.277Z,98113.73
2023-11-12T12:03:37.049Z,98127.34
2023-11-12T12:06:21.927Z,98129.09
2023-11-12T12:08:52.806Z,98133.71
2023-11-12T12:11:25.223Z,98142.23
2023-11-12T12:13:57.113Z,98146.89
2023-11-12T12:16:31.258Z,98153.36
2023-11-12T12:18:58.638Z,98158.86
2023-11-12T12:21:25.897Z,98164.19
2023-11-12T12:23:52.982Z,98171.09
2023-11-12T12:26:25.081Z,98172.70
2023-11-12T12:28:53.286Z,98177.00
2023-11-12T12:31:20.590Z,98180.96
2023-11-12T12:34:10.307Z,98183.69
2023-11-12T12:36:38.274Z,98187.82
2023-11-12T12:39:09.454Z,98195.16
2023-11-12T12:41:37.262Z,98201.75
2023-11-12T12:44:05.320Z,98203.52
2023-11-12T12:46:46.541Z,98215.48
2023-11-12T12:49:29.197Z,98220.90
2023-11-12T12:51:56.546Z,98220.36
2023-11-12T12:54:24.417Z,98224.72
2023-11-12T12:56:51.389Z,98225.98
2023-11-12T12:59:18.399Z,98230.54
2023-11-12T13:01:45.368Z,98235.95
2023-11-12T13:04:12.596Z,98241.63
2023-11-12T13:06:40.537Z,98244.20
2023-11-12T13:09:17.664Z,98248.42
2023-11-12T13:11:44.752Z,98252.39
2023-11-12T13:14:11.963Z,98258.59
2023-11-12T13:16:40.188Z,98263.67
2023-11-12T13:19:14.751Z,98272.98
2023-11-12T13:21:54.282Z,98274.23
2023-11-12T13:24:27.225Z,98281.15
2023-11-12T13:26:54.606Z,98285.16
2023-11-12T13:29:23.135Z,98287.73
2023-11-12T13:31:51.618Z,98294.10
2023-11-12T13:34:19.098Z,98295.55
2023-11-12T13:36:46.543Z,98300.90
2023-11-12T13:39:15.264Z,98305.63
2023-11-12T13:41:42.220Z,98305.57
2023-11-12T13:44:10.121Z,98313.30
2023-11-12T13:46:37.766Z,98312.48
2023-11-12T13:49:06.771Z,98322.88
2023-11-12T13:51:36.666Z,98324.05
2023-11-12T13:54:11.170Z,98331.77
2023-11-12T13:56:39.757Z,98334.98
2023-11-12T13:59:06.683Z,98337.23
2023-11-12T14:01:33.918Z,98341.90
2023-11-12T14:04:01.449Z,98347.09
2023-11-12T14:06:28.772Z,98353.69
2023-11-12T14:08:56.836Z,98353.32
2023-11-12T14:11:23.870Z,98360.77
2023-11-12T14:13:51.466Z,98364.94
2023-11-12T14:16:23.732Z,98377.69
2023-11-12T14:18:51.412Z,98380.48
2023-11-12T14:21:18.615Z,98386.19
2023-11-12T14:23:45.817Z,98394.58
2023-11-12T14:26:13.996Z,98399.55
2023-11-12T14:28:42.167Z,98408.45
2023-11-12T14:31:11.517Z,98412.63
2023-11-12T14:33:40.213Z,98421.67
2023-11-12T14:36:11.456Z,98423.16
2023-11-12T14:38:38.612Z,98427.81
2023-11-12T14:41:07.957Z,98431.46
2023-11-12T14:43:38.613Z,98441.73
2023-11-12T14:46:06.251Z,98445.08
2023-11-12T14:48:36.152Z,98449.23
2023-11-12T14:51:06.009Z,98460.17
2023-11-12T14:53:33.182Z,98466.01
2023-11-12T14:56:01.008Z,98469.17
2023-11-12T14:58:28.023Z,98473.19
2023-11-12T15:00:55.370Z,98483.73
2023-11-12T15:03:25.493Z,98488.24
2023-11-12T15:05:52.839Z,98494.44
2023-11-12T15:08:20.686Z,98502.41
2023-11-12T15:10:48.158Z,98507.42
2023-11-12T15:13:15.196Z,98512.30
2023-11-12T15:15:42.668Z,98518.63
2023-11-12T15:18:10.631Z,98531.59
2023-11-12T15:20:37.748Z,98531.70
2023-11-12T15:23:04.609Z,98538.46
2023-11-12T15:25:32.167Z,98542.48
2023-11-12T15:27:59.437Z,98554.25
2023-11-12T15:30:27.003Z,98558.91
2023-11-12T15:32:54.279Z,98561.86
2023-11-12T15:35:21.277Z,98569.52
2023-11-12T15:37:48.258Z,98576.39
2023-11-12T15:40:20.721Z,98582.15
2023-11-12T15:42:54.339Z,98592.56
2023-11-12T15:45:24.748Z,98601.02
2023-11-12T15:47:52.453Z,98607.23
2023-11-12T15:50:20.344Z,98613.48
2023-11-12T15:52:48.021Z,98622.95
2023-11-12T15:55:18.141Z,98627.17
2023-11-12T15:57:45.747Z,98629.31
2023-11-12T16:00:13.465Z,98633.08
2023-11-12T16:02:41.298Z,98638.36
2023-11-12T16:05:08.794Z,98649.70
2023-11-12T16:07:35.845Z,98655.71
2023-11-12T16:10:05.398Z,98660.92
2023-11-12T16:12:36.395Z,98667.41
2023-11-12T16:15:06.116Z,98667.81
2023-11-12T16:17:33.446Z,98675.05
2023-11-12T16:20:01.240Z,98681.15
2023-11-12T16:22:28.606Z,98681.96
2023-11-12T16:24:55.681Z,98688.43
2023-11-12T16:27:22.848Z,98692.86
2023-11-12T16:29:49.978Z,98693.38
2023-11-12T16:32:20.773Z,98697.52
2023-11-12T16:34:49.157Z,98700.54
2023-11-12T16:37:16.085Z,98707.38
2023-11-12T16:39:48.261Z,98712.52
2023-11-12T16:42:16.227Z,98714.42
2023-11-12T16:44:44.084Z,98721.48
2023-11-12T16:47:11.873Z,98723.03
2023-11-12T16:49:39.498Z,98723.94
2023-11-12T16:52:09.220Z,98733.11
2023-11-12T16:54:36.791Z,98738.73
2023-11-12T16:57:12.833Z,98739.39
2023-11-12T16:59:40.464Z,98745.78
2023-11-12T17:02:08.872Z,98749.23
2023-11-12T17:04:37.084Z,98755.86
2023-11-12T17:07:04.805Z,98758.55
2023-11-12T17:09:32.196Z,98760.24
2023-11-12T17:11:59.290Z,98765.16
2023-11-12T17:14:26.456Z,98774.92
2023-11-12T17:16:55.136Z,98778.25
2023-11-12T17:19:22.088Z,98780.70
2023-11-12T17:21:51.074Z,98784.56
2023-11-12T17:24:18.492Z,98787.02
2023-11-12T17:26:46.227Z,98790.35
2023-11-12T17:29:13.292Z,98797.05
2023-11-12T17:31:40.312Z,98800.69
2023-11-12T17:34:07.423Z,98804.73
2023-11-12T17:36:35.066Z,98808.02
2023-11-12T17:39:01.996Z,98815.61
2023-11-12T17:41:29.096Z,98821.42
2023-11-12T17:43:59.149Z,98822.14
2023-11-12T17:46:26.558Z,98822.94
2023-11-12T17:48:55.416Z,98823.47
2023-11-12T17:51:23.784Z,98829.78
2023-11-12T17:53:50.901Z,98831.70
2023-11-12T17:56:18.057Z,98840.89
2023-11-12T17:58:45.782Z,98841.77
2023-11-12T18:01:12.960Z,98851.66
2023-11-12T18:03:41.327Z,98855.16
2023-11-12T18:06:08.903Z,98862.10
2023-11-12T18:08:36.812Z,98864.17
2023-11-12T18:11:04.808Z,98867.33
2023-11-12T18:13:34.268Z,98876.66
2023-11-12T18:16:02.721Z,98880.39
2023-11-12T18:18:30.212Z,98889.02
2023-11-12T18:20:58.477Z,98895.98
2023-11-12T18:23:25.709Z,98898.52
2023-11-12T18:25:53.010Z,98902.48
2023-11-12T18:28:20.512Z,98908.70
2023-11-12T18:30:49.273Z,98915.02
2023-11-12T18:33:17.384Z,98921.77
2023-11-12T18:35:45.453Z,98926.86
2023-11-12T18:38:12.710Z,98935.04
2023-11-12T18:40:42.745Z,98939.72
2023-11-12T18:43:12.564Z,98947.71
2023-11-12T18:45:39.946Z,98951.25
2023-11-12T18:48:08.785Z,98953.02
2023-11-12T18:50:39.863Z,98961.14
2023-11-12T18:53:08.011Z,98964.33
2023-11-12T18:55:35.159Z,98970.70
2023-11-12T18:58:02.705Z,98971.85
2023-11-12T19:00:30.261Z,98977.27
2023-11-12T19:02:57.885Z,98979.20
2023-11-12T19:05:25.152Z,98986.39
2023-11-12T19:07:52.326Z,98994.38
2023-11-12T19:10:22.954Z,98996.86
2023-11-12T19:12:50.835Z,99002.45
2023-11-12T19:15:18.281Z,99004.95
2023-11-12T19:17:45.965Z,99009.65
2023-11-12T19:20:14.754Z,99012.38
2023-11-12T19:22:42.527Z,99012.54
2023-11-12T19:25:10.918Z,99017.52
2023-11-12T19:27:39.469Z,99022.88
2023-11-12T19:30:13.715Z,99026.28
2023-11-12T19:32:43.272Z,99032.54
2023-11-12T19:35:10.242Z,99038.17
2023-11-12T19:37:38.213Z,99042.27
2023-11-12T19:40:06.882Z,99049.64
2023-11-12T19:42:34.305Z,99047.70
2023-11-12T19:45:01.383Z,99044.48
2023-11-12T19:47:32.257Z,99049.08
2023-11-12T19:49:59.630Z,99050.98
2023-11-12T19:52:26.730Z,99048.97
2023-11-12T19:54:54.030Z,99055.71
2023-11-12T19:57:21.225Z,99062.75
2023-11-12T19:59:48.497Z,99067.54
2023-11-12T20:02:15.950Z,99070.98
2023-11-12T20:04:43.614Z,99074.62
2023-11-12T20:07:10.802Z,99073.63
2023-11-12T20:09:39.040Z,99081.81
2023-11-12T20:12:06.989Z,99079.90
2023-11-12T20:14:34.168Z,99082.52
2023-11-12T20:17:01.434Z,99083.95
2023-11-12T20:19:28.934Z,99089.64
2023-11-12T20:21:56.482Z,99089.77
2023-11-12T20:24:23.864Z,99090.74
2023-11-12T20:26:54.570Z,99095.98
2023-11-12T20:29:21.749Z,99094.09
2023-11-12T20:31:54.071Z,99096.18
2023-11-12T20:34:22.087Z,99093.08
2023-11-12T20:36:51.004Z,99099.60
2023-11-12T20:39:18.436Z,99103.78
2023-11-12T20:41:46.788Z,99104.55
2023-11-12T20:44:14.679Z,99104.39
2023-11-12T20:46:45.892Z,99106.44
2023-11-12T20:49:16.152Z,99112.08
2023-11-12T20:51:47.387Z,99113.36
2023-11-12T20:54:18.611Z,99117.69
2023-11-12T20:56:46.400Z,99120.07
2023-11-12T20:59:13.815Z,99123.04
2023-11-12T21:01:41.208Z,99123.91
2023-11-12T21:04:12.361Z,99124.74
2023-11-12T21:06:43.357Z,99128.67
2023-11-12T21:09:11.780Z,99133.23
2023-11-12T21:11:46.993Z,99136.23
2023-11-12T21:14:16.117Z,99137.51
2023-11-12T21:16:43.815Z,99144.41
2023-11-12T21:19:11.424Z,99148.27
2023-11-12T21:21:38.627Z,99149.98
2023-11-12T21:24:06.508Z,99152.80
2023-11-12T21:26:34.253Z,99155.83
2023-11-12T21:29:02.198Z,99157.95
2023-11-12T21:31:29.978Z,99158.99
2023-11-12T21:33:56.960Z,99160.63
2023-11-12T21:36:23.791Z,99165.09
2023-11-12T21:38:51.605Z,99162.16
2023-11-12T21:41:18.553Z,99164.93
2023-11-12T21:43:45.748Z,99172.69
2023-11-12T21:46:15.873Z,99178.45
2023-11-12T21:48:43.157Z,99180.48
2023-11-12T21:51:10.219Z,99182.29
2023-11-12T21:53:37.814Z,99187.79
2023-11-12T21:56:08.133Z,99184.60
2023-11-12T21:58:36.074Z,99191.85
2023-11-12T22:01:03.105Z,99194.95
2023-11-12T22:03:30.271Z,99198.86
2023-11-12T22:05:57.133Z,99205.05
2023-11-12T22:08:24.253Z,99202.42
2023-11-12T22:10:51.279Z,99209.10
2023-11-12T22:13:20.999Z,99211.86
2023-11-12T22:15:48.810Z,99216.07
2023-11-12T22:18:17.573Z,99217.91
2023-11-12T22:20:44.719Z,99224.85
2023-11-12T22:23:12.388Z,99226.73
2023-11-12T22:25:39.418Z,99226.42
2023-11-12T22:28:06.690Z,99237.23
2023-11-12T22:30:33.771Z,99236.49
2023-11-12T22:33:00.987Z,99237.92
2023-11-12T22:35:28.253Z,99240.88
2023-11-12T22:37:55.472Z,99241.51
2023-11-12T22:40:26.158Z,99243.03
2023-11-12T22:42:53.600Z,99245.27
2023-11-12T22:45:20.866Z,99248.17
2023-11-12T22:47:47.617Z,99254.77
2023-11-12T22:50:17.739Z,99256.05
2023-11-12T22:52:44.996Z,99259.29
2023-11-12T22:55:12.075Z,99261.41
2023-11-12T22:57:40.509Z,99265.67
2023-11-12T23:00:40.998Z,99269.10
2023-11-12T23:03:14.109Z,99271.85
2023-11-12T23:05:45.063Z,99274.58
2023-11-12T23:08:12.360Z,99275.86
2023-11-12T23:10:40.549Z,99273.46
2023-11-12T23:13:07.773Z,99282.23
2023-11-12T23:15:35.157Z,99284.79
2023-11-12T23:18:04.092Z,99293.65
2023-11-12T23:20:31.927Z,99294.64
2023-11-12T23:23:01.942Z,99296.40
2023-11-12T23:25:30.740Z,99302.02
2023-11-12T23:27:58.287Z,99301.60
2023-11-12T23:30:25.745Z,99305.02
2023-11-12T23:32:53.600Z,99311.02
2023-11-12T23:35:21.888Z,99316.88
2023-11-12T23:37:49.138Z,99318.61
2023-11-12T23:40:16.911Z,99326.64
2023-11-12T23:42:45.023Z,99328.79
2023-11-12T23:45:12.579Z,99329.90
2023-11-12T23:47:40.446Z,99338.99
2023-11-12T23:50:08.470Z,99341.23
2023-11-12T23:52:35.929Z,99345.34
2023-11-12T23:55:05.919Z,99349.08
2023-11-12T23:57:34.610Z,99352.46
